createdAt,value
2022-10-18T00:01:27.236Z,33.60
2022-10-18T00:03:29.558Z,30.58
2022-10-18T00:05:31.796Z,33.85
2022-10-18T00:09:39.479Z,24.42
2022-10-18T00:11:42.865Z,28.60
2022-10-18T00:13:45.116Z,47.20
2022-10-18T00:16:03.837Z,30.83
2022-10-18T00:18:11.162Z,35.53
2022-10-18T00:20:14.747Z,34.20
2022-10-18T00:22:16.969Z,32.72
2022-10-18T00:24:19.118Z,33.22
2022-10-18T00:26:27.596Z,29.33
2022-10-18T00:28:30.280Z,33.60
2022-10-18T00:30:32.472Z,29.80
2022-10-18T00:32:39.261Z,31.75
2022-10-18T00:34:41.564Z,30.00
2022-10-18T00:36:44.401Z,26.60
2022-10-18T00:38:49.787Z,32.30
2022-10-18T00:40:52.265Z,29.30
2022-10-18T00:42:54.474Z,31.45
2022-10-18T00:45:13.805Z,29.95
2022-10-18T00:47:18.166Z,29.08
2022-10-18T00:49:33.378Z,31.05
2022-10-18T00:51:45.105Z,30.25
2022-10-18T00:53:48.408Z,28.70
2022-10-18T00:55:51.222Z,22.02
2022-10-18T01:00:02.642Z,28.10
2022-10-18T01:02:07.234Z,25.20
2022-10-18T01:04:09.655Z,23.52
2022-10-18T01:06:12.052Z,21.88
2022-10-18T01:08:17.280Z,25.27
2022-10-18T01:10:41.345Z,23.40
2022-10-18T01:12:55.701Z,22.85
2022-10-18T01:15:10.646Z,23.95
2022-10-18T01:17:30.982Z,25.27
2022-10-18T01:19:51.653Z,26.40
2022-10-18T01:22:06.111Z,20.13
2022-10-18T01:24:31.029Z,26.38
2022-10-18T01:26:48.257Z,24.27
2022-10-18T01:29:11.148Z,23.30
2022-10-18T01:31:26.063Z,23.85
2022-10-18T01:33:56.841Z,22.65
2022-10-18T01:36:18.462Z,21.35
2022-10-18T01:38:23.500Z,20.67
2022-10-18T01:40:25.838Z,25.88
2022-10-18T01:44:33.096Z,23.75
2022-10-18T01:46:36.409Z,22.20
2022-10-18T01:48:38.756Z,23.10
2022-10-18T01:50:40.882Z,19.77
2022-10-18T01:52:52.621Z,24.85
2022-10-18T01:54:56.093Z,21.40
2022-10-18T01:57:00.324Z,24.55
2022-10-18T01:59:16.557Z,23.85
2022-10-18T02:01:25.840Z,23.30
2022-10-18T02:03:29.751Z,25.15
2022-10-18T02:06:21.382Z,25.80
2022-10-18T02:08:47.182Z,21.27
2022-10-18T02:10:54.848Z,26.15
2022-10-18T02:13:00.169Z,23.50
2022-10-18T02:15:05.328Z,22.63
2022-10-18T02:17:11.199Z,21.40
2022-10-18T02:19:20.051Z,20.88
2022-10-18T02:21:25.157Z,20.25
2022-10-18T02:23:27.934Z,22.33
2022-10-18T02:25:32.776Z,19.83
2022-10-18T02:27:35.893Z,24.15
2022-10-18T02:31:54.198Z,20.90
2022-10-18T02:34:02.747Z,25.67
2022-10-18T02:36:17.112Z,18.25
2022-10-18T02:38:21.193Z,21.35
2022-10-18T02:40:24.783Z,25.63
2022-10-18T02:42:34.533Z,20.90
2022-10-18T02:44:38.195Z,19.55
2022-10-18T02:46:40.732Z,23.77
2022-10-18T02:48:42.773Z,21.67
2022-10-18T02:50:44.779Z,16.75
2022-10-18T02:52:46.945Z,20.52
2022-10-18T02:54:48.975Z,20.48
2022-10-18T02:56:51.213Z,24.50
2022-10-18T02:58:53.248Z,20.10
2022-10-18T03:00:56.789Z,23.83
2022-10-18T03:03:01.603Z,21.75
2022-10-18T03:05:03.917Z,20.30
2022-10-18T03:09:10.769Z,24.08
2022-10-18T03:11:13.328Z,21.25
2022-10-18T03:13:15.677Z,24.67
2022-10-18T03:15:17.920Z,22.08
2022-10-18T03:17:20.130Z,23.27
2022-10-18T03:19:22.346Z,22.15
2022-10-18T03:21:24.397Z,22.65
2022-10-18T03:23:26.587Z,20.98
2022-10-18T03:25:32.158Z,20.40
2022-10-18T03:27:34.507Z,22.45
2022-10-18T03:31:38.815Z,22.17
2022-10-18T03:33:40.977Z,24.60
2022-10-18T03:35:43.646Z,24.67
2022-10-18T03:37:46.133Z,19.52
2022-10-18T03:41:50.725Z,18.00
2022-10-18T03:43:52.821Z,19.30
2022-10-18T03:45:54.971Z,28.20
2022-10-18T03:47:57.411Z,23.75
2022-10-18T03:49:59.969Z,23.45
2022-10-18T03:52:02.187Z,21.10
2022-10-18T03:56:06.585Z,28.65
2022-10-18T04:00:11.367Z,21.83
2022-10-18T04:02:16.297Z,26.92
2022-10-18T04:04:18.867Z,25.80
2022-10-18T04:06:21.254Z,24.10
2022-10-18T04:08:23.458Z,27.90
2022-10-18T04:10:26.142Z,30.52
2022-10-18T04:12:31.251Z,27.23
2022-10-18T04:14:33.852Z,25.65
2022-10-18T04:18:43.290Z,26.27
2022-10-18T04:20:45.464Z,30.75
2022-10-18T04:22:48.961Z,27.10
2022-10-18T04:24:53.435Z,24.50
2022-10-18T04:26:55.489Z,27.98
2022-10-18T04:28:57.720Z,27.92
2022-10-18T04:31:00.015Z,24.17
2022-10-18T04:35:05.203Z,27.40
2022-10-18T04:37:07.302Z,28.08
2022-10-18T04:39:09.390Z,27.10
2022-10-18T04:41:11.712Z,24.10
2022-10-18T04:43:13.915Z,24.23
2022-10-18T04:45:17.378Z,26.35
2022-10-18T04:47:19.530Z,19.95
2022-10-18T04:49:21.769Z,23.13
2022-10-18T04:51:24.150Z,24.88
2022-10-18T04:55:56.196Z,29.45
2022-10-18T04:58:22.758Z,20.25
2022-10-18T05:02:27.053Z,27.57
2022-10-18T05:04:32.141Z,23.63
2022-10-18T05:06:34.209Z,25.15
2022-10-18T05:09:10.206Z,24.63
2022-10-18T05:11:12.482Z,29.40
2022-10-18T05:13:14.496Z,24.60
2022-10-18T05:15:16.711Z,21.38
2022-10-18T05:17:18.798Z,24.88
2022-10-18T05:19:23.659Z,26.15
2022-10-18T05:21:26.261Z,22.17
2022-10-18T05:23:28.503Z,29.10
2022-10-18T05:25:32.865Z,27.92
2022-10-18T05:27:35.000Z,22.45
2022-10-18T05:29:37.761Z,25.58
2022-10-18T05:31:39.876Z,24.55
2022-10-18T05:33:44.806Z,25.65
2022-10-18T05:35:47.113Z,24.23
2022-10-18T05:37:49.336Z,24.60
2022-10-18T05:39:51.353Z,25.98
2022-10-18T05:41:53.992Z,26.75
2022-10-18T05:43:56.221Z,25.55
2022-10-18T05:45:58.503Z,20.75
2022-10-18T05:48:01.343Z,23.35
2022-10-18T05:50:03.786Z,26.85
2022-10-18T05:52:06.104Z,23.33
2022-10-18T05:56:12.118Z,28.13
2022-10-18T05:58:14.407Z,23.13
2022-10-18T06:00:18.140Z,25.42
2022-10-18T06:02:20.291Z,21.05
2022-10-18T06:04:22.651Z,27.02
2022-10-18T06:06:24.722Z,19.63
2022-10-18T06:08:27.074Z,25.88
2022-10-18T06:10:29.158Z,24.48
2022-10-18T06:12:33.753Z,25.25
2022-10-18T06:14:39.481Z,22.25
2022-10-18T06:16:41.604Z,21.00
2022-10-18T06:18:43.951Z,18.90
2022-10-18T06:22:47.947Z,22.52
2022-10-18T06:24:53.750Z,24.17
2022-10-18T06:26:58.777Z,26.25
2022-10-18T06:29:00.977Z,21.10
2022-10-18T06:31:05.248Z,22.45
2022-10-18T06:33:07.485Z,24.02
2022-10-18T06:35:09.799Z,24.83
2022-10-18T06:37:12.236Z,20.92
2022-10-18T06:41:18.233Z,28.87
2022-10-18T06:43:21.650Z,24.98
2022-10-18T06:45:23.956Z,26.67
2022-10-18T06:47:26.128Z,23.38
2022-10-18T06:49:28.443Z,21.40
2022-10-18T06:51:30.487Z,27.63
2022-10-18T06:53:43.697Z,28.13
2022-10-18T06:55:53.381Z,31.20
2022-10-18T06:57:55.475Z,24.58
2022-10-18T06:59:57.886Z,30.27
2022-10-18T07:04:02.142Z,25.27
2022-10-18T07:06:06.347Z,25.30
2022-10-18T07:08:08.406Z,27.02
2022-10-18T07:10:13.029Z,26.52
2022-10-18T07:12:17.873Z,23.60
2022-10-18T07:14:19.927Z,31.30
2022-10-18T07:16:22.179Z,22.05
2022-10-18T07:20:27.531Z,23.75
2022-10-18T07:22:30.481Z,23.23
2022-10-18T07:26:40.049Z,29.27
2022-10-18T07:28:44.024Z,29.00
2022-10-18T07:30:46.157Z,27.30
2022-10-18T07:32:48.310Z,30.17
2022-10-18T07:34:50.431Z,28.13
2022-10-18T07:36:54.778Z,26.65
2022-10-18T07:38:57.243Z,26.35
2022-10-18T07:41:06.448Z,31.63
2022-10-18T07:43:12.000Z,29.67
2022-10-18T07:45:14.499Z,24.65
2022-10-18T07:49:18.901Z,27.38
2022-10-18T07:51:21.827Z,26.10
2022-10-18T07:53:24.500Z,27.08
2022-10-18T07:55:26.669Z,28.17
2022-10-18T07:57:28.826Z,22.35
2022-10-18T08:01:34.600Z,25.77
2022-10-18T08:06:03.656Z,28.45
2022-10-18T08:08:08.011Z,24.15
2022-10-18T08:10:49.614Z,20.10
2022-10-18T08:12:53.961Z,22.95
2022-10-18T08:15:13.390Z,27.15
2022-10-18T08:17:43.493Z,22.92
2022-10-18T08:20:11.484Z,27.35
2022-10-18T08:22:19.151Z,25.23
2022-10-18T08:24:24.490Z,26.52
2022-10-18T08:26:26.794Z,25.05
2022-10-18T08:28:29.213Z,20.67
2022-10-18T08:32:34.128Z,23.45
2022-10-18T08:36:38.772Z,24.25
2022-10-18T08:38:42.642Z,23.63
2022-10-18T08:40:50.464Z,24.25
2022-10-18T08:43:21.986Z,18.00
2022-10-18T08:45:40.833Z,19.58
2022-10-18T08:47:49.525Z,19.40
2022-10-18T08:49:56.891Z,20.20
2022-10-18T08:52:01.960Z,19.15
2022-10-18T08:54:16.429Z,22.40
2022-10-18T08:56:24.318Z,17.38
2022-10-18T08:58:30.980Z,21.48
2022-10-18T09:00:40.852Z,20.90
2022-10-18T09:03:17.666Z,16.73
2022-10-18T09:05:32.035Z,21.17
2022-10-18T09:07:51.805Z,18.80
2022-10-18T09:10:19.925Z,18.48
2022-10-18T09:12:27.605Z,18.55
2022-10-18T09:14:35.859Z,18.80
2022-10-18T09:16:55.863Z,20.15
2022-10-18T09:19:18.454Z,17.00
2022-10-18T09:23:48.737Z,22.33
2022-10-18T09:26:01.605Z,15.75
2022-10-18T09:28:27.308Z,14.82
2022-10-18T09:30:44.759Z,14.95
2022-10-18T09:32:49.851Z,14.27
2022-10-18T09:35:15.174Z,14.00
2022-10-18T09:37:20.235Z,15.70
2022-10-18T09:39:28.642Z,9.98
2022-10-18T09:41:39.922Z,12.73
2022-10-18T09:44:03.488Z,10.98
2022-10-18T09:46:07.199Z,11.32
2022-10-18T09:48:21.321Z,12.30
2022-10-18T09:50:38.426Z,12.00
2022-10-18T09:53:00.189Z,12.73
2022-10-18T09:55:13.079Z,13.38
2022-10-18T09:57:27.105Z,12.98
2022-10-18T09:59:47.459Z,9.25
2022-10-18T10:01:52.033Z,10.50
2022-10-18T10:06:29.633Z,11.95
2022-10-18T10:08:35.495Z,11.77
2022-10-18T10:10:45.993Z,12.65
2022-10-18T10:12:49.482Z,11.63
2022-10-18T10:14:52.272Z,13.15
2022-10-18T10:16:56.325Z,12.07
2022-10-18T10:18:58.494Z,15.32
2022-10-18T10:21:13.860Z,11.45
2022-10-18T10:23:26.971Z,14.77
2022-10-18T10:25:34.947Z,13.25
2022-10-18T10:27:43.794Z,18.27
2022-10-18T10:29:47.063Z,16.38
2022-10-18T10:32:03.283Z,17.80
2022-10-18T10:34:07.008Z,21.70
2022-10-18T10:36:21.387Z,17.38
2022-10-18T10:38:26.080Z,20.00
2022-10-18T10:40:31.494Z,20.08
2022-10-18T10:42:38.089Z,20.60
2022-10-18T10:44:57.175Z,17.17
2022-10-18T10:46:59.959Z,19.98
2022-10-18T10:51:40.479Z,21.17
2022-10-18T10:53:47.851Z,21.52
2022-10-18T10:55:54.492Z,21.67
2022-10-18T10:57:57.066Z,24.27
2022-10-18T11:00:00.208Z,23.55
2022-10-18T11:02:29.334Z,19.33
2022-10-18T11:04:32.174Z,22.42
2022-10-18T11:06:42.427Z,26.17
2022-10-18T11:13:24.182Z,22.55
2022-10-18T11:15:53.629Z,19.63
2022-10-18T11:18:17.536Z,22.42
2022-10-18T11:20:38.078Z,26.73
2022-10-18T11:23:02.166Z,22.92
2022-10-18T11:25:06.293Z,24.42
2022-10-18T11:27:37.691Z,22.77
2022-10-18T11:30:02.130Z,25.58
2022-10-18T11:32:13.624Z,23.65
2022-10-18T11:34:31.464Z,22.45
2022-10-18T11:37:22.907Z,25.15
2022-10-18T11:39:41.535Z,22.17
2022-10-18T11:44:02.582Z,19.80
2022-10-18T11:46:31.321Z,18.85
2022-10-18T11:48:45.722Z,21.67
2022-10-18T11:51:02.815Z,21.25
2022-10-18T11:53:26.896Z,19.98
2022-10-18T11:55:32.053Z,19.52
2022-10-18T11:58:00.518Z,20.27
2022-10-18T12:03:03.601Z,18.40
2022-10-18T12:05:24.458Z,20.48
2022-10-18T12:07:33.245Z,21.23
2022-10-18T12:09:41.128Z,19.65
2022-10-18T12:12:01.690Z,17.65
2022-10-18T12:14:28.382Z,20.77
2022-10-18T12:16:50.987Z,21.33
2022-10-18T12:19:02.887Z,19.40
2022-10-18T12:21:06.850Z,19.63
2022-10-18T12:23:20.867Z,18.40
2022-10-18T12:25:23.710Z,18.05
2022-10-18T12:27:47.200Z,23.90
2022-10-18T12:30:03.872Z,16.50
2022-10-18T12:32:11.518Z,16.90
2022-10-18T12:34:22.798Z,17.75
2022-10-18T12:36:57.200Z,16.00
2022-10-18T12:39:03.280Z,15.18
2022-10-18T12:41:08.939Z,18.02
2022-10-18T12:43:18.560Z,13.05
2022-10-18T12:45:35.081Z,14.85
2022-10-18T12:47:41.619Z,15.68
2022-10-18T12:49:44.631Z,15.55
2022-10-18T12:51:59.915Z,12.77
2022-10-18T12:54:02.994Z,16.42
2022-10-18T12:56:29.770Z,12.95
2022-10-18T12:58:33.078Z,11.73
2022-10-18T13:00:35.258Z,13.63
2022-10-18T13:02:39.841Z,12.95
2022-10-18T13:04:42.398Z,15.07
2022-10-18T13:09:21.370Z,19.08
2022-10-18T13:11:33.441Z,12.57
2022-10-18T13:16:24.471Z,11.20
2022-10-18T13:18:43.386Z,13.30
2022-10-18T13:21:33.766Z,11.75
2022-10-18T13:23:57.650Z,14.90
2022-10-18T13:26:32.121Z,13.95
2022-10-18T13:29:07.434Z,16.23
2022-10-18T13:31:34.706Z,13.82
2022-10-18T13:33:39.534Z,14.00
2022-10-18T13:35:55.120Z,13.77
2022-10-18T13:38:00.377Z,13.52
2022-10-18T13:40:25.559Z,17.05
2022-10-18T13:42:33.596Z,16.35
2022-10-18T13:44:43.735Z,13.68
2022-10-18T13:46:46.006Z,14.85
2022-10-18T13:48:53.811Z,14.40
2022-10-18T13:51:21.488Z,17.50
2022-10-18T13:53:45.450Z,13.02
2022-10-18T13:55:49.822Z,15.68
2022-10-18T13:58:19.046Z,15.63
2022-10-18T14:00:44.746Z,15.48
2022-10-18T14:03:31.682Z,14.35
2022-10-18T14:06:09.965Z,14.25
2022-10-18T14:08:49.394Z,15.27
2022-10-18T14:11:04.303Z,16.33
2022-10-18T14:13:18.887Z,15.05
2022-10-18T14:15:29.074Z,12.57
2022-10-18T14:18:13.498Z,9.80
2022-10-18T14:20:55.341Z,10.32
2022-10-18T14:23:29.426Z,7.60
2022-10-18T14:25:36.036Z,7.93
2022-10-18T14:28:16.757Z,5.00
2022-10-18T14:30:28.118Z,6.57
2022-10-18T14:32:33.541Z,4.30
2022-10-18T14:34:48.081Z,4.28
2022-10-18T14:37:01.570Z,3.65
2022-10-18T14:39:22.823Z,5.20
2022-10-18T14:42:08.768Z,3.28
2022-10-18T14:44:29.317Z,4.32
2022-10-18T14:46:57.049Z,2.60
2022-10-18T14:49:16.052Z,2.70
2022-10-18T14:51:32.952Z,6.00
2022-10-18T14:53:44.418Z,5.20
2022-10-18T14:56:29.134Z,3.08
2022-10-18T14:58:41.717Z,2.20
2022-10-18T15:00:50.317Z,3.28
2022-10-18T15:03:12.425Z,3.30
2022-10-18T15:05:20.682Z,3.28
2022-10-18T15:07:38.773Z,1.83
2022-10-18T15:09:44.188Z,2.42
2022-10-18T15:11:55.225Z,3.28
2022-10-18T15:14:19.579Z,4.80
2022-10-18T15:16:38.887Z,3.78
2022-10-18T15:18:41.252Z,2.15
2022-10-18T15:20:45.944Z,2.05
2022-10-18T15:22:48.819Z,2.22
2022-10-18T15:25:06.376Z,3.08
2022-10-18T15:27:24.419Z,1.02
2022-10-18T15:29:32.518Z,2.00
2022-10-18T15:31:37.766Z,4.30
2022-10-18T15:33:39.840Z,2.47
2022-10-18T15:35:42.630Z,1.17
2022-10-18T15:37:47.249Z,3.15
2022-10-18T15:40:29.282Z,3.20
2022-10-18T15:42:36.718Z,1.10
2022-10-18T15:44:51.612Z,3.53
2022-10-18T15:47:12.456Z,2.78
2022-10-18T15:49:45.595Z,1.10
2022-10-18T15:51:50.031Z,3.28
2022-10-18T15:53:56.518Z,1.60
2022-10-18T15:56:22.614Z,1.58
2022-10-18T15:58:27.165Z,3.97
2022-10-18T16:00:29.531Z,1.70
2022-10-18T16:04:39.254Z,1.38
2022-10-18T16:06:43.949Z,4.63
2022-10-18T16:09:18.339Z,2.83
2022-10-18T16:11:24.007Z,2.40
2022-10-18T16:13:29.662Z,2.67
2022-10-18T16:15:33.223Z,2.13
2022-10-18T16:17:35.616Z,1.05
2022-10-18T16:19:40.203Z,1.52
2022-10-18T16:21:44.688Z,1.88
2022-10-18T16:23:48.312Z,1.80
2022-10-18T16:25:51.546Z,1.80
2022-10-18T16:27:53.761Z,3.00
2022-10-18T16:29:56.024Z,2.25
2022-10-18T16:31:58.604Z,4.78
2022-10-18T16:34:04.325Z,1.90
2022-10-18T16:36:14.284Z,2.25
2022-10-18T16:38:34.126Z,1.55
2022-10-18T16:40:40.362Z,3.17
2022-10-18T16:42:48.086Z,1.70
2022-10-18T16:44:50.258Z,1.08
2022-10-18T16:46:54.183Z,4.22
2022-10-18T16:48:58.673Z,2.97
2022-10-18T16:51:01.352Z,2.00
2022-10-18T16:55:06.133Z,1.03
2022-10-18T16:57:13.605Z,0.80
2022-10-18T16:59:29.256Z,1.17
2022-10-18T17:01:31.585Z,3.95
2022-10-18T17:03:34.223Z,3.00
2022-10-18T17:05:36.616Z,1.60
2022-10-18T17:09:41.406Z,1.95
2022-10-18T17:11:43.715Z,1.95
2022-10-18T17:15:50.760Z,1.63
2022-10-18T17:17:53.161Z,2.13
2022-10-18T17:19:56.194Z,1.60
2022-10-18T17:22:02.397Z,3.67
2022-10-18T17:24:06.288Z,2.53
2022-10-18T17:26:28.533Z,2.10
2022-10-18T17:28:32.265Z,1.98
2022-10-18T17:30:38.551Z,1.80
2022-10-18T17:32:44.731Z,2.10
2022-10-18T17:34:48.022Z,1.85
2022-10-18T17:38:53.855Z,5.10
2022-10-18T17:40:57.040Z,2.85
2022-10-18T17:42:59.855Z,1.95
2022-10-18T17:45:04.632Z,2.00
2022-10-18T17:47:11.060Z,1.38
2022-10-18T17:49:14.618Z,2.75
2022-10-18T17:51:17.656Z,1.85
2022-10-18T17:53:23.103Z,2.13
2022-10-18T17:55:25.434Z,1.20
2022-10-18T17:57:27.840Z,1.80
2022-10-18T18:01:32.180Z,1.63
2022-10-18T18:03:34.568Z,5.70
2022-10-18T18:05:37.021Z,1.95
2022-10-18T18:09:41.996Z,4.25
2022-10-18T18:15:50.560Z,1.95
2022-10-18T18:17:57.196Z,2.47
2022-10-18T18:20:03.038Z,4.05
2022-10-18T18:22:05.884Z,3.40
2022-10-18T18:24:10.255Z,1.95
2022-10-18T18:26:14.283Z,1.58
2022-10-18T18:28:16.291Z,2.60
2022-10-18T18:30:18.605Z,1.83
2022-10-18T18:34:22.896Z,2.10
2022-10-18T18:38:28.656Z,4.57
2022-10-18T18:40:30.810Z,2.95
2022-10-18T18:42:33.227Z,2.13
2022-10-18T18:44:38.252Z,3.35
2022-10-18T18:46:40.339Z,4.22
2022-10-18T18:48:43.103Z,2.47
2022-10-18T18:50:50.176Z,2.28
2022-10-18T18:52:52.345Z,2.35
2022-10-18T18:54:54.536Z,6.70
2022-10-18T18:56:57.975Z,2.15
2022-10-18T18:59:00.565Z,1.98
2022-10-18T19:01:19.942Z,1.92
2022-10-18T19:03:22.217Z,2.33
2022-10-18T19:05:25.609Z,2.17
2022-10-18T19:07:27.834Z,5.75
2022-10-18T19:09:29.971Z,1.42
2022-10-18T19:11:35.996Z,4.60
2022-10-18T19:13:38.858Z,2.25
2022-10-18T19:15:40.936Z,2.75
2022-10-18T19:17:43.452Z,4.15
2022-10-18T19:19:45.743Z,2.28
2022-10-18T19:21:59.541Z,3.13
2022-10-18T19:24:02.965Z,4.63
2022-10-18T19:26:13.695Z,3.75
2022-10-18T19:28:15.807Z,3.45
2022-10-18T19:30:20.150Z,5.10
2022-10-18T19:32:22.436Z,4.00
2022-10-18T19:40:32.369Z,6.28
2022-10-18T19:42:38.025Z,3.38
2022-10-18T19:44:41.202Z,1.85
2022-10-18T19:46:43.536Z,3.55
2022-10-18T19:48:45.614Z,3.30
2022-10-18T19:50:50.725Z,2.90
2022-10-18T19:52:52.941Z,2.50
2022-10-18T19:54:55.074Z,2.63
2022-10-18T19:56:57.175Z,4.47
2022-10-18T20:01:05.483Z,4.63
2022-10-18T20:03:08.575Z,3.05
2022-10-18T20:05:13.994Z,6.20
2022-10-18T20:07:16.115Z,5.13
2022-10-18T20:09:30.263Z,2.85
2022-10-18T20:11:37.824Z,5.38
2022-10-18T20:14:10.815Z,5.60
2022-10-18T20:16:30.834Z,4.10
2022-10-18T20:18:43.921Z,2.72
2022-10-18T20:20:56.066Z,3.88
2022-10-18T20:22:58.107Z,6.65
2022-10-18T20:25:00.273Z,4.20
2022-10-18T20:27:02.378Z,5.40
2022-10-18T20:29:04.836Z,5.70
2022-10-18T20:31:18.483Z,6.60
2022-10-18T20:33:20.567Z,2.60
2022-10-18T20:35:22.736Z,5.80
2022-10-18T20:37:24.929Z,4.72
2022-10-18T20:41:34.895Z,4.80
2022-10-18T20:43:37.092Z,3.60
2022-10-18T20:45:39.326Z,3.40
2022-10-18T20:49:43.436Z,1.70
2022-10-18T20:51:45.957Z,6.60
2022-10-18T20:53:48.761Z,3.80
2022-10-18T20:55:50.995Z,4.15
2022-10-18T20:57:53.258Z,5.00
2022-10-18T20:59:55.403Z,2.90
2022-10-18T21:04:05.042Z,7.25
2022-10-18T21:06:19.419Z,2.47
2022-10-18T21:08:21.540Z,6.95
2022-10-18T21:12:28.739Z,4.10
2022-10-18T21:14:31.344Z,6.55
2022-10-18T21:16:35.781Z,4.82
2022-10-18T21:18:40.714Z,2.03
2022-10-18T21:20:43.107Z,3.50
2022-10-18T21:22:46.010Z,3.40
2022-10-18T21:24:50.047Z,2.97
2022-10-18T21:26:52.852Z,3.50
2022-10-18T21:28:58.820Z,2.67
2022-10-18T21:31:12.926Z,4.63
2022-10-18T21:33:15.207Z,3.10
2022-10-18T21:35:17.508Z,2.95
2022-10-18T21:37:19.663Z,2.10
2022-10-18T21:41:31.875Z,2.35
2022-10-18T21:43:33.987Z,3.78
2022-10-18T21:45:36.158Z,2.03
2022-10-18T21:47:38.445Z,3.03
2022-10-18T21:49:40.561Z,2.08
2022-10-18T21:51:43.251Z,3.63
2022-10-18T21:53:47.921Z,2.92
2022-10-18T21:55:49.989Z,4.90
2022-10-18T21:57:52.096Z,4.63
2022-10-18T21:59:56.326Z,3.97
2022-10-18T22:02:01.381Z,2.80
2022-10-18T22:04:07.239Z,3.75
2022-10-18T22:06:15.376Z,3.17
2022-10-18T22:08:17.494Z,3.05
2022-10-18T22:10:19.796Z,3.78
2022-10-18T22:14:24.201Z,4.33
2022-10-18T22:16:26.681Z,2.42
2022-10-18T22:20:31.243Z,5.43
2022-10-18T22:22:33.906Z,4.78
2022-10-18T22:24:39.276Z,2.25
2022-10-18T22:26:43.259Z,5.40
2022-10-18T22:28:46.423Z,3.50
2022-10-18T22:30:48.700Z,4.35
2022-10-18T22:34:53.493Z,6.57
2022-10-18T22:36:56.185Z,4.93
2022-10-18T22:38:58.635Z,10.48
2022-10-18T22:41:08.458Z,3.92
2022-10-18T22:43:11.305Z,6.28
2022-10-18T22:45:13.534Z,4.25
2022-10-18T22:49:17.772Z,9.55
2022-10-18T22:51:21.033Z,3.42
2022-10-18T22:53:23.355Z,6.22
2022-10-18T22:57:29.659Z,7.40
2022-10-18T22:59:31.899Z,5.05
2022-10-18T23:01:34.890Z,5.88
2022-10-18T23:03:37.640Z,4.57
2022-10-18T23:05:41.563Z,5.18
2022-10-18T23:07:48.982Z,5.47
2022-10-18T23:09:51.342Z,3.50
2022-10-18T23:13:55.666Z,4.75
2022-10-18T23:16:04.654Z,6.70
2022-10-18T23:18:07.642Z,4.78
2022-10-18T23:20:10.144Z,2.90
2022-10-18T23:22:15.039Z,3.58
2022-10-18T23:24:17.103Z,2.97
2022-10-18T23:26:22.526Z,5.20
2022-10-18T23:28:25.300Z,3.65
2022-10-18T23:30:27.523Z,4.82
2022-10-18T23:32:29.703Z,5.90
2022-10-18T23:34:32.079Z,3.75
2022-10-18T23:38:38.864Z,4.45
2022-10-18T23:40:41.764Z,4.40
2022-10-18T23:42:43.777Z,3.75
2022-10-18T23:44:46.087Z,3.25
2022-10-18T23:48:50.840Z,6.03
2022-10-18T23:50:52.955Z,4.68
2022-10-18T23:52:55.075Z,3.90
2022-10-18T23:54:57.183Z,5.32
2022-10-18T23:56:59.479Z,3.28
2022-10-18T23:59:01.471Z,3.80
